createdAt,value
2018-11-02T00:02:11.298Z,5.10
2018-11-02T00:04:40.485Z,4.80
2018-11-02T00:07:09.705Z,3.40
2018-11-02T00:09:38.915Z,3.40
2018-11-02T00:12:08.119Z,4.13
2018-11-02T00:14:37.374Z,4.00
2018-11-02T00:17:06.574Z,5.80
2018-11-02T00:19:36.234Z,4.80
2018-11-02T00:22:06.114Z,5.10
2018-11-02T00:24:35.415Z,3.93
2018-11-02T00:27:04.586Z,4.33
2018-11-02T00:29:33.876Z,4.33
2018-11-02T00:32:03.117Z,4.20
2018-11-02T00:34:32.287Z,3.87
2018-11-02T00:37:01.444Z,4.40
2018-11-02T00:39:30.669Z,4.47
2018-11-02T00:41:59.850Z,3.90
2018-11-02T00:44:29.088Z,3.73
2018-11-02T00:46:58.271Z,5.00
2018-11-02T00:49:27.505Z,5.53
2018-11-02T00:51:56.693Z,3.60
2018-11-02T00:54:25.949Z,4.37
2018-11-02T00:56:55.179Z,3.20
2018-11-02T00:59:24.420Z,4.30
2018-11-02T01:01:53.603Z,4.20
2018-11-02T01:04:22.839Z,5.13
2018-11-02T01:06:52.005Z,4.80
2018-11-02T01:09:21.206Z,4.33
2018-11-02T01:11:50.403Z,5.17
2018-11-02T01:14:19.614Z,4.70
2018-11-02T01:16:48.901Z,5.40
2018-11-02T01:19:18.064Z,4.17
2018-11-02T01:21:47.256Z,3.90
2018-11-02T01:24:16.459Z,4.37
2018-11-02T01:26:45.658Z,4.13
2018-11-02T01:29:14.884Z,4.17
2018-11-02T01:31:44.080Z,5.27
2018-11-02T01:34:13.322Z,4.37
2018-11-02T01:36:42.490Z,3.80
2018-11-02T01:39:11.679Z,4.00
2018-11-02T01:41:40.903Z,4.60
2018-11-02T01:44:10.132Z,4.27
2018-11-02T01:46:39.295Z,6.57
2018-11-02T01:49:08.832Z,4.40
2018-11-02T01:51:38.020Z,4.97
2018-11-02T01:54:07.253Z,4.63
2018-11-02T01:56:36.492Z,4.40
2018-11-02T01:59:06.152Z,4.30
2018-11-02T02:01:35.355Z,5.97
2018-11-02T02:04:04.595Z,4.40
2018-11-02T02:06:33.803Z,3.73
2018-11-02T02:09:03.058Z,4.87
2018-11-02T02:11:32.250Z,4.27
2018-11-02T02:14:01.464Z,6.27
2018-11-02T02:16:30.673Z,4.27
2018-11-02T02:18:59.839Z,4.60
2018-11-02T02:21:29.025Z,4.33
2018-11-02T02:23:58.264Z,4.30
2018-11-02T02:26:27.455Z,4.13
2018-11-02T02:28:56.628Z,4.40
2018-11-02T02:31:25.959Z,4.03
2018-11-02T02:33:55.135Z,4.90
2018-11-02T02:36:24.396Z,4.50
2018-11-02T02:38:53.608Z,4.53
2018-11-02T02:41:22.827Z,4.60
2018-11-02T02:43:52.001Z,4.40
2018-11-02T02:46:21.266Z,4.73
2018-11-02T02:48:50.452Z,4.40
2018-11-02T02:51:19.948Z,4.43
2018-11-02T02:53:49.117Z,4.40
2018-11-02T02:56:18.327Z,4.23
2018-11-02T02:58:47.511Z,4.33
2018-11-02T03:01:16.719Z,3.80
2018-11-02T03:03:45.895Z,4.40
2018-11-02T03:06:15.116Z,3.87
2018-11-02T03:08:44.296Z,3.73
2018-11-02T03:11:13.635Z,4.00
2018-11-02T03:13:42.801Z,3.70
2018-11-02T03:16:12.028Z,4.40
2018-11-02T03:18:41.487Z,4.20
2018-11-02T03:21:10.637Z,3.93
2018-11-02T03:23:39.852Z,4.70
2018-11-02T03:26:09.051Z,4.33
2018-11-02T03:28:38.223Z,4.80
2018-11-02T03:31:07.419Z,4.57
2018-11-02T03:33:36.597Z,4.57
2018-11-02T03:36:05.796Z,3.93
2018-11-02T03:38:34.987Z,4.53
2018-11-02T03:41:04.251Z,3.83
2018-11-02T03:43:33.427Z,3.77
2018-11-02T03:46:02.673Z,4.20
2018-11-02T03:48:31.847Z,4.17
2018-11-02T03:51:01.061Z,5.17
2018-11-02T03:53:30.254Z,3.67
2018-11-02T03:55:59.851Z,3.87
2018-11-02T03:58:29.028Z,4.10
2018-11-02T04:00:58.246Z,4.20
2018-11-02T04:03:27.448Z,4.40
2018-11-02T04:05:56.651Z,4.40
2018-11-02T04:08:25.793Z,4.43
2018-11-02T04:10:55.033Z,4.27
2018-11-02T04:13:24.384Z,3.73
2018-11-02T04:15:53.584Z,4.47
2018-11-02T04:18:22.746Z,5.80
2018-11-02T04:20:51.985Z,3.90
2018-11-02T04:23:21.164Z,4.57
2018-11-02T04:25:50.388Z,4.43
2018-11-02T04:28:21.168Z,4.03
2018-11-02T04:30:50.446Z,4.50
2018-11-02T04:33:19.651Z,4.73
2018-11-02T04:35:48.868Z,4.20
2018-11-02T04:38:18.040Z,4.40
2018-11-02T04:40:47.292Z,5.07
2018-11-02T04:43:16.594Z,4.83
2018-11-02T04:45:45.846Z,4.73
2018-11-02T04:48:15.016Z,4.70
2018-11-02T04:50:44.281Z,4.53
2018-11-02T04:53:13.482Z,4.90
2018-11-02T04:55:42.705Z,4.53
2018-11-02T04:58:11.872Z,5.00
2018-11-02T05:00:41.050Z,4.73
2018-11-02T05:03:10.263Z,4.20
2018-11-02T05:05:39.442Z,4.70
2018-11-02T05:08:08.661Z,4.80
2018-11-02T05:10:37.863Z,4.80
2018-11-02T05:13:07.069Z,4.30
2018-11-02T05:15:36.242Z,4.33
2018-11-02T05:18:05.427Z,6.10
2018-11-02T05:20:34.631Z,4.20
2018-11-02T05:23:03.869Z,4.97
2018-11-02T05:25:33.016Z,4.80
2018-11-02T05:28:02.235Z,4.20
2018-11-02T05:30:31.463Z,4.40
2018-11-02T05:33:00.667Z,4.33
2018-11-02T05:35:29.859Z,4.33
2018-11-02T05:37:59.069Z,4.13
2018-11-02T05:40:28.250Z,4.50
2018-11-02T05:42:57.482Z,4.87
2018-11-02T05:45:26.699Z,4.63
2018-11-02T05:47:55.904Z,4.57
2018-11-02T05:50:25.076Z,6.20
2018-11-02T05:52:54.273Z,4.23
2018-11-02T05:55:23.435Z,4.50
2018-11-02T05:57:52.727Z,7.13
2018-11-02T06:00:21.948Z,6.27
2018-11-02T06:02:51.227Z,12.37
2018-11-02T06:05:20.397Z,7.17
2018-11-02T06:07:49.590Z,7.60
2018-11-02T06:10:18.858Z,7.13
2018-11-02T06:12:48.089Z,6.60
2018-11-02T06:15:17.254Z,7.27
2018-11-02T06:17:46.445Z,7.87
2018-11-02T06:20:15.584Z,9.03
2018-11-02T06:22:44.813Z,5.73
2018-11-02T06:25:14.025Z,7.67
2018-11-02T06:27:43.226Z,6.90
2018-11-02T06:30:12.393Z,8.93
2018-11-02T06:32:41.765Z,9.60
2018-11-02T06:35:10.894Z,8.50
2018-11-02T06:37:40.123Z,7.37
2018-11-02T06:40:09.475Z,9.40
2018-11-02T06:42:38.683Z,9.57
2018-11-02T06:45:09.471Z,9.87
2018-11-02T06:47:38.792Z,11.10
2018-11-02T06:50:08.365Z,9.13
2018-11-02T06:52:37.608Z,9.07
2018-11-02T06:55:07.895Z,9.33
2018-11-02T06:57:37.107Z,11.13
2018-11-02T07:00:10.882Z,8.83
2018-11-02T07:02:39.985Z,8.03
2018-11-02T07:05:09.437Z,8.13
2018-11-02T07:07:39.052Z,9.23
2018-11-02T07:10:09.244Z,8.23
2018-11-02T07:12:38.444Z,7.27
2018-11-02T07:15:08.017Z,7.47
2018-11-02T07:17:37.259Z,8.00
2018-11-02T07:20:07.626Z,8.27
2018-11-02T07:22:36.867Z,7.90
2018-11-02T07:25:07.290Z,7.40
2018-11-02T07:27:36.405Z,6.93
2018-11-02T07:30:07.042Z,6.43
2018-11-02T07:32:36.258Z,6.47
2018-11-02T07:35:06.569Z,6.77
2018-11-02T07:37:35.823Z,7.10
2018-11-02T07:40:05.532Z,5.63
2018-11-02T07:42:34.804Z,6.63
2018-11-02T07:45:04.604Z,6.53
2018-11-02T07:47:33.910Z,7.77
2018-11-02T07:50:03.729Z,6.40
2018-11-02T07:52:32.954Z,6.83
2018-11-02T07:55:02.751Z,5.40
2018-11-02T07:57:32.009Z,5.60
2018-11-02T08:00:01.244Z,6.10
2018-11-02T08:02:30.452Z,5.63
2018-11-02T08:04:59.650Z,5.67
2018-11-02T08:07:28.866Z,6.97
2018-11-02T08:09:58.051Z,5.67
2018-11-02T08:12:27.247Z,6.93
2018-11-02T08:14:56.423Z,5.90
2018-11-02T08:17:25.652Z,6.77
2018-11-02T08:19:54.870Z,7.33
2018-11-02T08:22:24.073Z,8.20
2018-11-02T08:24:53.319Z,6.53
2018-11-02T08:27:22.519Z,8.00
2018-11-02T08:29:51.688Z,6.80
2018-11-02T08:32:20.896Z,6.70
2018-11-02T08:34:50.073Z,7.40
2018-11-02T08:37:19.275Z,6.53
2018-11-02T08:39:48.454Z,6.90
2018-11-02T08:42:17.662Z,7.57
2018-11-02T08:44:46.824Z,7.37
2018-11-02T08:47:16.026Z,7.77
2018-11-02T08:49:45.209Z,7.47
2018-11-02T08:52:14.490Z,8.43
2018-11-02T08:54:43.667Z,7.93
2018-11-02T08:57:12.840Z,7.80
2018-11-02T08:59:42.161Z,7.47
2018-11-02T09:02:11.413Z,9.93
2018-11-02T09:04:40.573Z,20.43
2018-11-02T09:07:09.951Z,18.30
2018-11-02T09:09:39.136Z,14.77
2018-11-02T09:12:08.615Z,12.50
2018-11-02T09:14:37.825Z,9.43
2018-11-02T09:17:08.036Z,10.47
2018-11-02T09:19:37.101Z,8.57
2018-11-02T09:22:06.311Z,7.60
2018-11-02T09:24:35.635Z,8.53
2018-11-02T09:27:04.873Z,8.63
2018-11-02T09:29:34.074Z,7.73
2018-11-02T09:32:03.277Z,7.93
2018-11-02T09:34:32.434Z,8.00
2018-11-02T09:37:01.653Z,8.63
2018-11-02T09:39:30.803Z,9.27
2018-11-02T09:42:00.017Z,7.20
2018-11-02T09:44:29.374Z,7.63
2018-11-02T09:46:58.598Z,8.33
2018-11-02T09:49:27.780Z,9.77
2018-11-02T09:51:57.062Z,10.63
2018-11-02T09:54:26.267Z,8.73
2018-11-02T09:56:55.517Z,8.33
2018-11-02T09:59:24.730Z,9.20
2018-11-02T10:01:53.910Z,8.27
2018-11-02T10:04:23.076Z,7.90
2018-11-02T10:06:52.344Z,8.07
2018-11-02T10:09:21.674Z,7.50
2018-11-02T10:11:50.902Z,8.50
2018-11-02T10:14:20.094Z,7.83
2018-11-02T10:16:49.339Z,8.67
2018-11-02T10:19:18.553Z,7.53
2018-11-02T10:21:47.683Z,7.10
2018-11-02T10:24:16.930Z,7.30
2018-11-02T10:26:46.207Z,8.07
2018-11-02T10:29:18.379Z,7.93
2018-11-02T10:31:47.612Z,6.40
2018-11-02T10:34:16.842Z,6.27
2018-11-02T10:36:46.087Z,5.80
2018-11-02T10:39:15.579Z,9.10
2018-11-02T10:41:48.369Z,8.53
2018-11-02T10:44:20.170Z,7.43
2018-11-02T10:46:49.544Z,6.97
2018-11-02T10:49:18.651Z,6.23
2018-11-02T10:51:47.890Z,6.77
2018-11-02T10:54:17.195Z,6.53
2018-11-02T10:56:46.240Z,5.80
2018-11-02T10:59:15.528Z,7.23
2018-11-02T11:01:51.484Z,6.10
2018-11-02T11:04:21.005Z,5.90
2018-11-02T11:06:50.287Z,5.87
2018-11-02T11:09:19.547Z,4.57
2018-11-02T11:11:48.928Z,5.37
2018-11-02T11:14:17.984Z,5.20
2018-11-02T11:16:47.190Z,4.27
2018-11-02T11:19:16.425Z,5.73
2018-11-02T11:21:45.585Z,6.47
2018-11-02T11:24:14.812Z,5.13
2018-11-02T11:26:43.991Z,4.83
2018-11-02T11:29:13.351Z,3.70
2018-11-02T11:31:42.546Z,4.60
2018-11-02T11:34:11.767Z,3.77
2018-11-02T11:36:41.011Z,4.57
2018-11-02T11:39:13.069Z,3.53
2018-11-02T11:41:42.257Z,3.60
2018-11-02T11:44:11.681Z,3.70
2018-11-02T11:46:40.910Z,3.40
2018-11-02T11:49:10.790Z,3.63
2018-11-02T11:51:39.952Z,3.43
2018-11-02T11:54:09.251Z,3.50
2018-11-02T11:56:38.433Z,3.50
2018-11-02T11:59:07.685Z,2.60
2018-11-02T12:01:36.878Z,3.00
2018-11-02T12:04:06.568Z,3.17
2018-11-02T12:06:35.824Z,3.00
2018-11-02T12:09:06.047Z,3.63
2018-11-02T12:11:35.266Z,3.03
2018-11-02T12:14:04.496Z,3.20
2018-11-02T12:16:33.699Z,3.10
2018-11-02T12:19:02.963Z,3.00
2018-11-02T12:21:32.246Z,3.20
2018-11-02T12:24:01.424Z,3.30
2018-11-02T12:26:30.625Z,3.03
2018-11-02T12:28:59.834Z,2.73
2018-11-02T12:31:29.020Z,2.60
2018-11-02T12:33:58.260Z,3.80
2018-11-02T12:36:27.453Z,2.30
2018-11-02T12:38:56.770Z,2.37
2018-11-02T12:41:25.973Z,2.73
2018-11-02T12:43:55.301Z,2.37
2018-11-02T12:46:24.523Z,2.93
2018-11-02T12:48:53.980Z,2.20
2018-11-02T12:51:22.970Z,2.87
2018-11-02T12:53:52.198Z,2.33
2018-11-02T12:56:21.378Z,2.57
2018-11-02T12:58:50.636Z,3.17
2018-11-02T13:01:19.825Z,2.27
2018-11-02T13:03:49.038Z,2.50
2018-11-02T13:06:18.216Z,2.60
2018-11-02T13:08:47.520Z,2.60
2018-11-02T13:11:16.786Z,2.80
2018-11-02T13:13:46.025Z,2.50
2018-11-02T13:16:15.505Z,4.73
2018-11-02T13:18:44.627Z,2.60
2018-11-02T13:21:13.850Z,2.40
2018-11-02T13:23:43.064Z,2.83
2018-11-02T13:26:12.545Z,2.70
2018-11-02T13:28:43.431Z,2.83
2018-11-02T13:31:12.709Z,2.23
2018-11-02T13:33:41.899Z,2.73
2018-11-02T13:36:11.181Z,2.30
2018-11-02T13:38:40.339Z,3.20
2018-11-02T13:41:09.589Z,3.50
2018-11-02T13:43:38.798Z,3.73
2018-11-02T13:46:07.969Z,3.67
2018-11-02T13:48:37.175Z,3.17
2018-11-02T13:51:06.575Z,3.20
2018-11-02T13:53:35.827Z,2.80
2018-11-02T13:56:04.914Z,2.53
2018-11-02T13:58:34.097Z,4.53
2018-11-02T14:01:03.363Z,2.70
2018-11-02T14:03:32.572Z,2.30
2018-11-02T14:06:01.801Z,2.00
2018-11-02T14:08:31.028Z,2.23
2018-11-02T14:11:00.463Z,2.23
2018-11-02T14:13:29.634Z,4.20
2018-11-02T14:15:58.842Z,1.80
2018-11-02T14:18:28.040Z,1.90
2018-11-02T14:20:57.273Z,3.83
2018-11-02T14:23:26.450Z,1.70
2018-11-02T14:25:55.669Z,1.80
2018-11-02T14:28:24.842Z,1.93
2018-11-02T14:30:54.189Z,6.00
2018-11-02T14:33:23.364Z,6.93
2018-11-02T14:35:52.569Z,7.80
2018-11-02T14:38:21.750Z,6.73
2018-11-02T14:40:51.094Z,6.37
2018-11-02T14:43:20.171Z,5.23
2018-11-02T14:45:49.399Z,6.43
2018-11-02T14:48:18.611Z,7.53
2018-11-02T14:50:47.821Z,7.00
2018-11-02T14:53:17.053Z,6.50
2018-11-02T14:55:46.288Z,4.70
2018-11-02T14:58:15.457Z,4.47
2018-11-02T15:00:44.645Z,3.73
2018-11-02T15:03:13.888Z,4.33
2018-11-02T15:05:43.130Z,4.47
2018-11-02T15:08:12.398Z,4.23
2018-11-02T15:10:41.572Z,4.10
2018-11-02T15:13:10.772Z,5.67
2018-11-02T15:15:40.017Z,4.37
2018-11-02T15:18:09.238Z,4.20
2018-11-02T15:20:38.461Z,4.13
2018-11-02T15:23:07.723Z,3.90
2018-11-02T15:25:36.963Z,4.17
2018-11-02T15:28:06.195Z,4.10
2018-11-02T15:30:35.434Z,3.73
2018-11-02T15:33:04.730Z,3.93
2018-11-02T15:35:33.966Z,3.50
2018-11-02T15:38:03.135Z,3.43
2018-11-02T15:40:32.352Z,3.00
2018-11-02T15:43:01.549Z,2.73
2018-11-02T15:45:30.766Z,2.70
2018-11-02T15:48:00.023Z,2.83
2018-11-02T15:50:29.222Z,2.40
2018-11-02T15:52:58.435Z,4.70
2018-11-02T15:55:27.624Z,2.87
2018-11-02T15:57:56.804Z,2.23
2018-11-02T16:00:26.001Z,2.13
2018-11-02T16:02:55.270Z,3.10
2018-11-02T16:05:24.430Z,4.83
2018-11-02T16:07:53.689Z,2.63
2018-11-02T16:10:22.871Z,2.50
2018-11-02T16:12:52.136Z,2.63
2018-11-02T16:15:21.510Z,3.13
2018-11-02T16:17:50.776Z,2.60
2018-11-02T16:20:20.054Z,4.03
2018-11-02T16:22:49.119Z,2.40
2018-11-02T16:25:18.301Z,3.17
2018-11-02T16:27:47.513Z,3.97
2018-11-02T16:30:16.859Z,3.63
2018-11-02T16:32:46.080Z,3.53
2018-11-02T16:35:15.351Z,3.40
2018-11-02T16:37:44.585Z,3.27
2018-11-02T16:40:15.353Z,2.57
2018-11-02T16:42:45.190Z,2.53
2018-11-02T16:45:15.155Z,2.83
2018-11-02T16:47:44.830Z,2.97
2018-11-02T16:50:15.114Z,2.60
2018-11-02T16:52:44.689Z,2.63
2018-11-02T16:55:13.860Z,3.03
2018-11-02T16:57:43.267Z,2.90
2018-11-02T17:00:16.595Z,4.37
2018-11-02T17:02:46.809Z,2.83
2018-11-02T17:05:16.190Z,2.60
2018-11-02T17:07:45.467Z,3.63
2018-11-02T17:10:15.400Z,5.20
2018-11-02T17:12:45.092Z,5.10
2018-11-02T17:15:14.708Z,3.87
2018-11-02T17:17:43.921Z,4.33
2018-11-02T17:20:14.440Z,4.90
2018-11-02T17:22:43.673Z,5.43
2018-11-02T17:25:13.402Z,3.80
2018-11-02T17:27:42.638Z,4.00
2018-11-02T17:30:15.885Z,4.60
2018-11-02T17:32:45.198Z,5.40
2018-11-02T17:35:14.402Z,5.03
2018-11-02T17:37:43.659Z,4.30
2018-11-02T17:40:14.018Z,3.53
2018-11-02T17:42:43.715Z,3.50
2018-11-02T17:45:12.991Z,3.80
2018-11-02T17:47:43.014Z,4.20
2018-11-02T17:50:13.283Z,3.37
2018-11-02T17:52:42.680Z,3.33
2018-11-02T17:55:11.869Z,3.30
2018-11-02T17:57:41.111Z,3.10
2018-11-02T18:00:11.826Z,3.10
2018-11-02T18:02:41.070Z,3.00
2018-11-02T18:05:10.928Z,3.00
2018-11-02T18:07:40.136Z,3.20
2018-11-02T18:10:11.384Z,3.20
2018-11-02T18:12:40.853Z,2.47
2018-11-02T18:15:10.697Z,2.97
2018-11-02T18:17:39.927Z,3.23
2018-11-02T18:20:11.388Z,2.90
2018-11-02T18:22:40.601Z,3.60
2018-11-02T18:25:10.295Z,3.00
2018-11-02T18:27:39.618Z,3.53
2018-11-02T18:30:10.729Z,3.77
2018-11-02T18:32:40.036Z,2.50
2018-11-02T18:35:09.769Z,3.43
2018-11-02T18:37:39.014Z,2.37
2018-11-02T18:40:09.946Z,2.47
2018-11-02T18:42:40.252Z,2.70
2018-11-02T18:45:11.335Z,2.10
2018-11-02T18:47:44.621Z,2.60
2018-11-02T18:50:15.450Z,2.53
2018-11-02T18:52:45.023Z,3.77
2018-11-02T18:55:14.203Z,3.80
2018-11-02T18:57:43.467Z,3.73
2018-11-02T19:00:12.969Z,5.00
2018-11-02T19:02:42.409Z,3.97
2018-11-02T19:05:14.507Z,4.03
2018-11-02T19:07:43.797Z,4.07
2018-11-02T19:10:13.224Z,2.90
2018-11-02T19:12:43.016Z,3.80
2018-11-02T19:15:13.794Z,4.00
2018-11-02T19:17:43.181Z,3.67
2018-11-02T19:20:12.767Z,3.80
2018-11-02T19:22:41.937Z,3.50
2018-11-02T19:25:12.546Z,5.87
2018-11-02T19:27:42.048Z,3.50
2018-11-02T19:30:12.469Z,3.47
2018-11-02T19:32:41.837Z,3.00
2018-11-02T19:35:12.013Z,2.80
2018-11-02T19:37:41.171Z,7.93
2018-11-02T19:40:12.379Z,3.30
2018-11-02T19:42:41.667Z,2.93
2018-11-02T19:45:11.504Z,2.77
2018-11-02T19:47:45.932Z,2.90
2018-11-02T19:50:16.612Z,3.53
2018-11-02T19:52:45.845Z,3.13
2018-11-02T19:55:15.408Z,3.10
2018-11-02T19:57:45.099Z,3.83
2018-11-02T20:00:15.610Z,2.67
2018-11-02T20:02:44.916Z,2.60
2018-11-02T20:05:16.441Z,3.13
2018-11-02T20:07:45.773Z,3.07
2018-11-02T20:10:15.971Z,2.93
2018-11-02T20:12:47.058Z,3.47
2018-11-02T20:15:16.805Z,4.03
2018-11-02T20:17:46.021Z,3.13
2018-11-02T20:20:16.192Z,3.53
2018-11-02T20:22:45.410Z,2.80
2018-11-02T20:25:16.003Z,2.70
2018-11-02T20:27:45.368Z,3.50
2018-11-02T20:30:16.061Z,2.67
2018-11-02T20:32:45.356Z,4.53
2018-11-02T20:35:16.955Z,4.70
2018-11-02T20:37:46.171Z,3.70
2018-11-02T20:40:18.156Z,3.30
2018-11-02T20:42:47.628Z,4.57
2018-11-02T20:45:17.265Z,3.47
2018-11-02T20:47:48.231Z,3.77
2018-11-02T20:50:17.849Z,3.57
2018-11-02T20:52:47.228Z,3.70
2018-11-02T20:55:16.860Z,3.10
2018-11-02T20:57:46.088Z,4.57
2018-11-02T21:00:16.690Z,4.30
2018-11-02T21:02:46.173Z,4.53
2018-11-02T21:05:16.460Z,3.23
2018-11-02T21:07:46.226Z,3.63
2018-11-02T21:10:16.441Z,3.93
2018-11-02T21:12:45.650Z,3.77
2018-11-02T21:15:16.268Z,3.07
2018-11-02T21:17:45.460Z,3.30
2018-11-02T21:20:19.799Z,3.40
2018-11-02T21:22:49.021Z,3.33
2018-11-02T21:25:18.239Z,3.40
2018-11-02T21:27:47.863Z,3.60
2018-11-02T21:30:21.581Z,4.03
2018-11-02T21:32:51.455Z,3.67
2018-11-02T21:35:21.305Z,3.50
2018-11-02T21:37:50.740Z,4.80
2018-11-02T21:40:22.136Z,4.33
2018-11-02T21:42:51.320Z,3.60
2018-11-02T21:45:21.575Z,4.23
2018-11-02T21:47:50.808Z,4.17
2018-11-02T21:50:20.148Z,3.80
2018-11-02T21:52:49.343Z,6.37
2018-11-02T21:55:18.604Z,3.57
2018-11-02T21:57:47.795Z,3.80
2018-11-02T22:00:21.272Z,3.93
2018-11-02T22:02:50.499Z,3.47
2018-11-02T22:05:19.727Z,3.23
2018-11-02T22:07:49.766Z,4.37
2018-11-02T22:10:19.156Z,4.43
2018-11-02T22:12:48.359Z,4.03
2018-11-02T22:15:17.578Z,3.30
2018-11-02T22:17:46.829Z,3.33
2018-11-02T22:20:16.528Z,3.20
2018-11-02T22:22:45.785Z,3.20
2018-11-02T22:25:15.638Z,3.33
2018-11-02T22:27:44.856Z,3.20
2018-11-02T22:30:15.361Z,2.70
2018-11-02T22:32:44.551Z,3.43
2018-11-02T22:35:14.495Z,3.20
2018-11-02T22:37:43.961Z,3.70
2018-11-02T22:40:13.903Z,3.20
2018-11-02T22:42:43.705Z,3.40
2018-11-02T22:45:13.997Z,3.00
2018-11-02T22:47:47.400Z,3.63
2018-11-02T22:50:16.599Z,3.00
2018-11-02T22:52:45.820Z,2.80
2018-11-02T22:55:15.025Z,4.80
2018-11-02T22:57:44.290Z,4.67
2018-11-02T23:00:16.658Z,3.27
2018-11-02T23:02:46.726Z,4.60
2018-11-02T23:05:15.913Z,3.20
2018-11-02T23:07:45.433Z,3.17
2018-11-02T23:10:14.637Z,4.27
2018-11-02T23:12:43.867Z,3.57
2018-11-02T23:15:13.394Z,2.80
2018-11-02T23:17:42.637Z,3.20
2018-11-02T23:20:13.737Z,3.27
2018-11-02T23:22:43.103Z,4.77
2018-11-02T23:25:12.755Z,3.30
2018-11-02T23:27:43.420Z,3.73
2018-11-02T23:30:12.715Z,3.23
2018-11-02T23:32:42.013Z,3.27
2018-11-02T23:35:11.211Z,3.40
2018-11-02T23:37:40.555Z,3.27
2018-11-02T23:40:10.730Z,3.27
2018-11-02T23:42:39.978Z,4.07
2018-11-02T23:45:10.251Z,3.50
2018-11-02T23:47:39.885Z,3.37
2018-11-02T23:50:10.287Z,3.50
2018-11-02T23:52:39.507Z,3.97
2018-11-02T23:55:08.895Z,3.83
2018-11-02T23:57:38.316Z,3.47
